createdAt,value
2022-09-18T00:01:24.895Z,9.87
2022-09-18T00:03:54.668Z,9.90
2022-09-18T00:06:24.400Z,9.91
2022-09-18T00:08:53.884Z,9.87
2022-09-18T00:11:23.475Z,9.84
2022-09-18T00:13:50.719Z,9.89
2022-09-18T00:16:20.638Z,9.83
2022-09-18T00:18:48.415Z,9.84
2022-09-18T00:21:18.739Z,9.78
2022-09-18T00:23:46.904Z,9.82
2022-09-18T00:26:16.480Z,9.74
2022-09-18T00:28:44.418Z,9.76
2022-09-18T00:31:15.179Z,9.69
2022-09-18T00:33:42.929Z,9.65
2022-09-18T00:36:13.616Z,9.66
2022-09-18T00:38:41.478Z,9.65
2022-09-18T00:41:13.263Z,9.65
2022-09-18T00:43:40.998Z,9.61
2022-09-18T00:46:29.167Z,9.61
2022-09-18T00:49:09.987Z,9.58
2022-09-18T00:51:39.772Z,9.58
2022-09-18T00:54:12.414Z,9.55
2022-09-18T00:56:41.428Z,9.54
2022-09-18T00:59:10.755Z,9.48
2022-09-18T01:01:38.031Z,9.47
2022-09-18T01:04:11.463Z,9.44
2022-09-18T01:06:51.920Z,9.44
2022-09-18T01:09:28.798Z,9.43
2022-09-18T01:12:15.650Z,9.39
2022-09-18T01:14:56.980Z,9.36
2022-09-18T01:17:54.751Z,9.32
2022-09-18T01:20:58.977Z,9.33
2022-09-18T01:23:59.636Z,9.40
2022-09-18T01:26:47.219Z,9.34
2022-09-18T01:29:26.403Z,9.33
2022-09-18T01:32:00.344Z,9.25
2022-09-18T01:34:56.184Z,9.28
2022-09-18T01:37:43.585Z,9.23
2022-09-18T01:40:24.045Z,9.18
2022-09-18T01:42:55.075Z,9.11
2022-09-18T01:45:27.937Z,9.18
2022-09-18T01:47:59.825Z,9.09
2022-09-18T01:50:31.324Z,9.08
2022-09-18T01:53:07.768Z,9.02
2022-09-18T01:55:37.682Z,8.98
2022-09-18T01:58:11.287Z,9.02
2022-09-18T02:00:43.583Z,9.05
2022-09-18T02:03:22.309Z,9.02
2022-09-18T02:05:56.211Z,9.01
2022-09-18T02:08:37.460Z,9.03
2022-09-18T02:11:10.683Z,9.01
2022-09-18T02:13:40.285Z,8.98
2022-09-18T02:16:14.785Z,8.99
2022-09-18T02:18:45.927Z,9.02
2022-09-18T02:21:17.440Z,9.01
2022-09-18T02:23:45.834Z,8.96
2022-09-18T02:26:15.147Z,8.98
2022-09-18T02:28:44.672Z,9.02
2022-09-18T02:31:13.052Z,9.00
2022-09-18T02:33:40.427Z,8.97
2022-09-18T02:36:10.488Z,8.97
2022-09-18T02:39:05.217Z,9.02
2022-09-18T02:41:54.689Z,9.14
2022-09-18T02:44:50.636Z,9.05
2022-09-18T02:47:33.463Z,9.11
2022-09-18T02:50:15.500Z,9.01
2022-09-18T02:53:14.241Z,8.98
2022-09-18T02:55:50.064Z,8.95
2022-09-18T02:58:25.136Z,8.97
2022-09-18T03:00:57.711Z,8.96
2022-09-18T03:03:29.840Z,8.93
2022-09-18T03:06:01.739Z,8.93
2022-09-18T03:08:31.000Z,8.90
2022-09-18T03:10:58.451Z,8.89
2022-09-18T03:13:27.620Z,8.84
2022-09-18T03:15:56.183Z,8.91
2022-09-18T03:18:26.119Z,8.78
2022-09-18T03:20:56.000Z,8.80
2022-09-18T03:23:23.767Z,8.77
2022-09-18T03:25:56.340Z,8.76
2022-09-18T03:28:23.573Z,8.68
2022-09-18T03:30:52.380Z,8.59
2022-09-18T03:33:20.316Z,8.56
2022-09-18T03:35:47.504Z,8.51
2022-09-18T03:38:14.704Z,8.52
2022-09-18T03:40:47.706Z,8.43
2022-09-18T03:43:16.418Z,8.41
2022-09-18T03:45:43.773Z,8.43
2022-09-18T03:48:11.265Z,8.39
2022-09-18T03:50:38.561Z,8.43
2022-09-18T03:53:12.126Z,8.38
2022-09-18T03:55:52.421Z,8.37
2022-09-18T03:58:38.135Z,8.42
2022-09-18T04:01:24.030Z,8.34
2022-09-18T04:04:23.581Z,8.34
2022-09-18T04:07:09.098Z,8.36
2022-09-18T04:09:56.028Z,8.31
2022-09-18T04:12:23.264Z,8.24
2022-09-18T04:15:04.967Z,8.21
2022-09-18T04:17:32.258Z,8.17
2022-09-18T04:19:59.460Z,8.16
2022-09-18T04:22:26.641Z,8.10
2022-09-18T04:24:53.899Z,8.14
2022-09-18T04:27:22.275Z,8.14
2022-09-18T04:29:50.806Z,8.11
2022-09-18T04:32:19.696Z,8.05
2022-09-18T04:34:47.603Z,8.05
2022-09-18T04:37:16.307Z,8.07
2022-09-18T04:39:46.842Z,8.09
2022-09-18T04:42:15.129Z,8.04
2022-09-18T04:44:44.853Z,8.00
2022-09-18T04:47:12.188Z,8.01
2022-09-18T04:49:39.469Z,7.93
2022-09-18T04:52:07.854Z,7.92
2022-09-18T04:54:35.129Z,7.91
2022-09-18T04:57:02.403Z,7.94
2022-09-18T04:59:29.686Z,7.89
2022-09-18T05:01:59.052Z,7.89
2022-09-18T05:04:26.863Z,7.95
2022-09-18T05:07:07.525Z,7.93
2022-09-18T05:09:37.110Z,8.01
2022-09-18T05:12:06.879Z,8.05
2022-09-18T05:14:36.437Z,8.09
2022-09-18T05:17:06.304Z,8.07
2022-09-18T05:19:37.507Z,8.12
2022-09-18T05:22:17.840Z,8.14
2022-09-18T05:24:48.631Z,8.25
2022-09-18T05:27:15.916Z,8.27
2022-09-18T05:29:43.844Z,8.32
2022-09-18T05:32:18.318Z,8.44
2022-09-18T05:34:46.401Z,8.49
2022-09-18T05:37:13.636Z,8.53
2022-09-18T05:39:42.122Z,8.61
2022-09-18T05:42:10.174Z,8.75
2022-09-18T05:44:37.478Z,8.78
2022-09-18T05:47:12.747Z,8.90
2022-09-18T05:49:40.740Z,8.99
2022-09-18T05:52:07.996Z,9.11
2022-09-18T05:54:36.479Z,9.22
2022-09-18T05:57:03.881Z,9.40
2022-09-18T05:59:32.261Z,9.53
2022-09-18T06:02:00.902Z,9.66
2022-09-18T06:04:48.108Z,9.80
2022-09-18T06:07:17.563Z,9.94
2022-09-18T06:09:45.050Z,10.02
2022-09-18T06:12:13.029Z,10.14
2022-09-18T06:14:40.240Z,10.17
2022-09-18T06:17:07.727Z,10.36
2022-09-18T06:19:35.579Z,10.51
2022-09-18T06:22:02.813Z,10.62
2022-09-18T06:24:30.080Z,10.75
2022-09-18T06:27:08.595Z,10.86
2022-09-18T06:29:36.019Z,10.91
2022-09-18T06:32:11.168Z,11.00
2022-09-18T06:34:40.161Z,11.18
2022-09-18T06:37:10.243Z,11.24
2022-09-18T06:39:57.802Z,11.36
2022-09-18T06:42:37.230Z,11.53
2022-09-18T06:45:30.901Z,11.72
2022-09-18T06:48:02.856Z,11.85
2022-09-18T06:50:32.283Z,11.98
2022-09-18T06:53:08.780Z,12.13
2022-09-18T06:55:42.001Z,12.28
2022-09-18T06:58:09.399Z,12.36
2022-09-18T07:00:36.789Z,12.54
2022-09-18T07:03:04.131Z,12.59
2022-09-18T07:05:57.389Z,12.87
2022-09-18T07:08:39.179Z,12.88
2022-09-18T07:11:15.204Z,13.06
2022-09-18T07:13:42.474Z,13.16
2022-09-18T07:16:10.000Z,13.27
2022-09-18T07:18:37.372Z,13.45
2022-09-18T07:21:05.030Z,13.59
2022-09-18T07:23:37.367Z,13.74
2022-09-18T07:26:05.364Z,13.87
2022-09-18T07:28:33.957Z,13.99
2022-09-18T07:31:10.638Z,14.08
2022-09-18T07:33:38.300Z,14.18
2022-09-18T07:36:06.526Z,14.20
2022-09-18T07:38:37.475Z,14.37
2022-09-18T07:41:05.852Z,14.34
2022-09-18T07:43:34.385Z,14.48
2022-09-18T07:46:02.816Z,14.54
2022-09-18T07:48:33.510Z,14.58
2022-09-18T07:51:12.335Z,14.62
2022-09-18T07:53:42.229Z,14.65
2022-09-18T07:56:10.627Z,14.75
2022-09-18T07:58:39.965Z,15.00
2022-09-18T08:01:20.965Z,15.06
2022-09-18T08:03:52.283Z,15.22
2022-09-18T08:06:20.270Z,15.26
2022-09-18T08:09:22.557Z,15.51
2022-09-18T08:11:52.978Z,15.64
2022-09-18T08:14:38.673Z,15.66
2022-09-18T08:17:26.546Z,15.72
2022-09-18T08:20:09.364Z,15.86
2022-09-18T08:22:43.574Z,16.01
2022-09-18T08:25:12.416Z,16.04
2022-09-18T08:27:43.147Z,16.18
2022-09-18T08:30:17.157Z,16.26
2022-09-18T08:32:46.558Z,16.34
2022-09-18T08:35:13.833Z,16.54
2022-09-18T08:37:48.838Z,16.53
2022-09-18T08:41:03.123Z,16.65
2022-09-18T08:43:57.786Z,16.83
2022-09-18T08:46:36.135Z,17.07
2022-09-18T08:49:26.401Z,17.08
2022-09-18T08:52:04.140Z,17.21
2022-09-18T08:54:58.819Z,17.47
2022-09-18T08:58:14.161Z,17.45
2022-09-18T09:00:53.626Z,17.63
2022-09-18T09:04:02.053Z,17.58
2022-09-18T09:07:12.194Z,17.82
2022-09-18T09:10:03.924Z,18.11
2022-09-18T09:13:04.928Z,18.09
2022-09-18T09:15:41.766Z,18.27
2022-09-18T09:18:59.668Z,18.21
2022-09-18T09:21:52.152Z,18.25
2022-09-18T09:24:31.232Z,18.29
2022-09-18T09:27:29.088Z,18.49
2022-09-18T09:30:20.544Z,18.68
2022-09-18T09:33:19.029Z,18.99
2022-09-18T09:36:07.212Z,18.89
2022-09-18T09:39:03.845Z,18.95
2022-09-18T09:41:41.762Z,19.16
2022-09-18T09:44:18.934Z,19.37
2022-09-18T09:46:55.159Z,19.52
2022-09-18T09:49:28.582Z,19.59
2022-09-18T09:52:37.819Z,19.83
2022-09-18T09:55:13.342Z,19.96
2022-09-18T09:57:53.558Z,20.01
2022-09-18T10:00:21.533Z,20.12
2022-09-18T10:03:04.603Z,20.08
2022-09-18T10:05:44.400Z,20.26
2022-09-18T10:08:15.240Z,20.24
2022-09-18T10:10:54.520Z,20.24
2022-09-18T10:13:26.299Z,20.46
2022-09-18T10:16:00.677Z,20.34
2022-09-18T10:18:35.479Z,20.53
2022-09-18T10:21:12.315Z,20.46
2022-09-18T10:23:42.076Z,20.64
2022-09-18T10:26:17.872Z,20.64
2022-09-18T10:28:45.112Z,21.08
2022-09-18T10:31:14.522Z,20.86
2022-09-18T10:33:50.364Z,21.10
2022-09-18T10:36:37.350Z,21.28
2022-09-18T10:39:34.896Z,21.41
2022-09-18T10:42:17.124Z,21.37
2022-09-18T10:45:01.622Z,21.53
2022-09-18T10:47:33.210Z,21.73
2022-09-18T10:50:30.321Z,21.74
2022-09-18T10:53:28.587Z,21.82
2022-09-18T10:56:04.850Z,21.86
2022-09-18T10:58:33.821Z,21.84
2022-09-18T11:01:08.020Z,22.03
2022-09-18T11:03:42.684Z,22.09
2022-09-18T11:06:25.445Z,21.87
2022-09-18T11:08:59.687Z,22.06
2022-09-18T11:11:32.921Z,21.97
2022-09-18T11:14:19.973Z,22.25
2022-09-18T11:17:02.542Z,22.48
2022-09-18T11:19:39.080Z,22.22
2022-09-18T11:22:37.316Z,22.34
2022-09-18T11:25:26.675Z,22.33
2022-09-18T11:28:00.702Z,22.36
2022-09-18T11:30:38.514Z,22.65
2022-09-18T11:33:32.563Z,22.32
2022-09-18T11:36:07.733Z,22.45
2022-09-18T11:38:47.068Z,22.48
2022-09-18T11:41:35.656Z,22.53
2022-09-18T11:44:17.839Z,22.57
2022-09-18T11:47:18.340Z,22.65
2022-09-18T11:50:02.599Z,22.87
2022-09-18T11:52:41.459Z,22.72
2022-09-18T11:55:31.141Z,22.72
2022-09-18T11:58:05.336Z,22.89
2022-09-18T12:00:40.351Z,23.13
2022-09-18T12:03:26.388Z,23.29
2022-09-18T12:06:23.693Z,23.41
2022-09-18T12:09:03.273Z,23.04
2022-09-18T12:11:43.180Z,23.24
2022-09-18T12:14:35.032Z,23.28
2022-09-18T12:17:20.380Z,23.31
2022-09-18T12:19:53.422Z,23.05
2022-09-18T12:22:34.364Z,23.23
2022-09-18T12:25:14.119Z,23.51
2022-09-18T12:28:12.586Z,23.54
2022-09-18T12:30:49.356Z,23.45
2022-09-18T12:33:22.296Z,23.34
2022-09-18T12:36:09.232Z,23.10
2022-09-18T12:39:01.125Z,23.26
2022-09-18T12:41:58.622Z,23.32
2022-09-18T12:44:36.914Z,23.48
2022-09-18T12:47:06.872Z,23.20
2022-09-18T12:49:40.204Z,23.48
2022-09-18T12:53:08.635Z,23.81
2022-09-18T12:55:36.870Z,23.83
2022-09-18T12:58:28.628Z,23.68
2022-09-18T13:00:59.145Z,23.97
2022-09-18T13:03:35.100Z,24.05
2022-09-18T13:06:20.099Z,24.10
2022-09-18T13:08:55.386Z,23.84
2022-09-18T13:11:28.821Z,23.86
2022-09-18T13:14:21.738Z,23.88
2022-09-18T13:16:58.960Z,24.01
2022-09-18T13:19:29.675Z,24.10
2022-09-18T13:22:00.287Z,24.08
2022-09-18T13:24:34.622Z,24.19
2022-09-18T13:27:05.729Z,23.97
2022-09-18T13:29:45.154Z,24.18
2022-09-18T13:32:14.455Z,24.30
2022-09-18T13:34:58.998Z,24.12
2022-09-18T13:37:27.577Z,24.30
2022-09-18T13:40:14.322Z,24.37
2022-09-18T13:42:43.506Z,24.14
2022-09-18T13:45:13.519Z,23.99
2022-09-18T13:48:05.439Z,24.25
2022-09-18T13:50:35.352Z,24.32
2022-09-18T13:53:05.020Z,23.99
2022-09-18T13:55:36.520Z,24.23
2022-09-18T13:58:33.552Z,24.21
2022-09-18T14:01:03.404Z,24.15
2022-09-18T14:03:31.175Z,24.27
2022-09-18T14:05:58.359Z,24.15
2022-09-18T14:08:26.034Z,24.04
2022-09-18T14:11:17.227Z,24.31
2022-09-18T14:13:54.361Z,24.09
2022-09-18T14:16:23.973Z,24.27
2022-09-18T14:18:58.248Z,24.36
2022-09-18T14:21:31.594Z,24.03
2022-09-18T14:24:20.810Z,24.21
2022-09-18T14:26:47.988Z,24.03
2022-09-18T14:29:18.751Z,24.01
2022-09-18T14:31:51.810Z,24.05
2022-09-18T14:34:18.962Z,24.12
2022-09-18T14:36:54.988Z,24.02
2022-09-18T14:39:30.899Z,24.20
2022-09-18T14:42:10.643Z,23.96
2022-09-18T14:44:38.840Z,24.26
2022-09-18T14:47:08.943Z,24.35
2022-09-18T14:49:42.132Z,24.15
2022-09-18T14:52:30.360Z,24.10
2022-09-18T14:55:00.058Z,24.14
2022-09-18T14:57:33.163Z,24.01
2022-09-18T15:00:01.409Z,24.10
2022-09-18T15:02:33.181Z,24.36
2022-09-18T15:05:03.659Z,23.89
2022-09-18T15:07:30.984Z,23.95
2022-09-18T15:10:01.388Z,24.15
2022-09-18T15:12:31.597Z,23.88
2022-09-18T15:14:59.232Z,23.65
2022-09-18T15:17:28.391Z,23.63
2022-09-18T15:20:13.923Z,23.74
2022-09-18T15:22:41.908Z,23.79
2022-09-18T15:25:13.952Z,23.47
2022-09-18T15:27:43.240Z,23.65
2022-09-18T15:30:20.017Z,23.59
2022-09-18T15:33:19.247Z,23.45
2022-09-18T15:35:52.501Z,23.15
2022-09-18T15:38:22.411Z,23.15
2022-09-18T15:40:50.600Z,22.97
2022-09-18T15:43:30.261Z,22.86
2022-09-18T15:46:06.479Z,22.88
2022-09-18T15:48:35.930Z,22.47
2022-09-18T15:51:17.662Z,22.52
2022-09-18T15:54:05.518Z,22.24
2022-09-18T15:56:34.460Z,22.17
2022-09-18T15:59:06.531Z,22.07
2022-09-18T16:01:37.056Z,21.85
2022-09-18T16:04:23.851Z,21.69
2022-09-18T16:07:00.395Z,21.61
2022-09-18T16:09:43.922Z,21.44
2022-09-18T16:12:29.229Z,21.44
2022-09-18T16:14:56.330Z,21.26
2022-09-18T16:17:29.866Z,21.16
2022-09-18T16:20:00.364Z,21.07
2022-09-18T16:22:30.309Z,20.91
2022-09-18T16:24:58.149Z,20.87
2022-09-18T16:27:26.516Z,20.78
2022-09-18T16:29:53.755Z,20.71
2022-09-18T16:32:21.763Z,20.66
2022-09-18T16:34:49.071Z,20.61
2022-09-18T16:37:17.372Z,20.50
2022-09-18T16:39:44.706Z,20.44
2022-09-18T16:42:20.390Z,20.31
2022-09-18T16:44:47.694Z,20.24
2022-09-18T16:47:15.956Z,20.21
2022-09-18T16:49:46.031Z,20.11
2022-09-18T16:52:14.539Z,20.07
2022-09-18T16:54:41.747Z,20.00
2022-09-18T16:57:19.603Z,19.84
2022-09-18T16:59:49.493Z,19.70
2022-09-18T17:02:23.300Z,19.60
2022-09-18T17:04:52.631Z,19.47
2022-09-18T17:07:19.816Z,19.37
2022-09-18T17:09:47.007Z,19.25
2022-09-18T17:12:14.212Z,19.21
2022-09-18T17:14:41.457Z,19.10
2022-09-18T17:17:08.693Z,19.04
2022-09-18T17:19:36.863Z,18.97
2022-09-18T17:22:04.062Z,18.92
2022-09-18T17:24:31.302Z,18.84
2022-09-18T17:26:58.478Z,18.79
2022-09-18T17:29:25.967Z,18.74
2022-09-18T17:31:53.470Z,18.65
2022-09-18T17:34:22.075Z,18.54
2022-09-18T17:36:49.328Z,18.47
2022-09-18T17:39:17.100Z,18.35
2022-09-18T17:41:45.795Z,18.24
2022-09-18T17:44:13.100Z,18.11
2022-09-18T17:46:40.510Z,17.81
2022-09-18T17:49:08.017Z,17.70
2022-09-18T17:51:35.247Z,17.65
2022-09-18T17:54:04.490Z,17.68
2022-09-18T17:56:33.193Z,17.68
2022-09-18T17:59:03.833Z,17.67
2022-09-18T18:01:32.378Z,17.68
2022-09-18T18:04:00.175Z,17.64
2022-09-18T18:06:27.966Z,17.63
2022-09-18T18:08:56.159Z,17.64
2022-09-18T18:11:25.344Z,17.62
2022-09-18T18:13:54.317Z,17.61
2022-09-18T18:16:30.615Z,17.57
2022-09-18T18:19:00.620Z,17.53
2022-09-18T18:21:28.962Z,17.48
2022-09-18T18:23:57.943Z,17.45
2022-09-18T18:26:26.839Z,17.39
2022-09-18T18:28:55.516Z,17.32
2022-09-18T18:31:25.502Z,17.26
2022-09-18T18:33:54.481Z,17.19
2022-09-18T18:36:27.899Z,17.17
2022-09-18T18:38:57.708Z,17.14
2022-09-18T18:41:28.724Z,17.10
2022-09-18T18:43:58.968Z,16.98
2022-09-18T18:46:28.636Z,16.92
2022-09-18T18:49:02.713Z,16.86
2022-09-18T18:51:35.993Z,16.80
2022-09-18T18:54:04.909Z,16.65
2022-09-18T18:56:35.091Z,16.55
2022-09-18T18:59:03.774Z,16.45
2022-09-18T19:01:32.251Z,16.40
2022-09-18T19:04:08.154Z,16.34
2022-09-18T19:06:38.844Z,16.30
2022-09-18T19:09:10.102Z,16.24
2022-09-18T19:11:45.262Z,16.18
2022-09-18T19:14:17.764Z,16.07
2022-09-18T19:16:46.247Z,16.02
2022-09-18T19:19:15.738Z,15.99
2022-09-18T19:21:43.079Z,16.00
2022-09-18T19:24:11.195Z,15.94
2022-09-18T19:26:41.243Z,15.94
2022-09-18T19:29:12.881Z,15.78
2022-09-18T19:31:42.652Z,15.68
2022-09-18T19:34:15.430Z,15.64
2022-09-18T19:36:48.988Z,15.63
2022-09-18T19:39:17.619Z,15.60
2022-09-18T19:42:12.208Z,15.54
2022-09-18T19:44:50.187Z,15.37
2022-09-18T19:47:25.239Z,15.26
2022-09-18T19:49:53.994Z,15.23
2022-09-18T19:52:23.616Z,15.20
2022-09-18T19:54:52.752Z,15.24
2022-09-18T19:57:21.192Z,15.13
2022-09-18T19:59:52.596Z,15.09
2022-09-18T20:02:21.253Z,15.05
2022-09-18T20:04:48.539Z,14.97
2022-09-18T20:07:15.839Z,14.90
2022-09-18T20:09:43.159Z,14.90
2022-09-18T20:12:10.589Z,14.92
2022-09-18T20:14:37.835Z,14.93
2022-09-18T20:17:05.073Z,14.88
2022-09-18T20:19:32.480Z,14.70
2022-09-18T20:22:02.937Z,14.64
2022-09-18T20:24:31.558Z,14.56
2022-09-18T20:26:59.770Z,14.37
2022-09-18T20:29:27.514Z,14.24
2022-09-18T20:31:55.055Z,14.17
2022-09-18T20:34:24.748Z,14.30
2022-09-18T20:36:52.476Z,14.21
2022-09-18T20:39:19.744Z,14.15
2022-09-18T20:41:48.155Z,14.05
2022-09-18T20:44:15.510Z,14.09
2022-09-18T20:46:43.442Z,13.93
2022-09-18T20:49:11.656Z,13.79
2022-09-18T20:51:38.923Z,13.79
2022-09-18T20:54:09.464Z,13.85
2022-09-18T20:56:43.323Z,13.80
2022-09-18T20:59:12.010Z,13.68
2022-09-18T21:01:41.486Z,13.57
2022-09-18T21:04:17.217Z,13.51
2022-09-18T21:06:47.880Z,13.44
2022-09-18T21:09:15.740Z,13.47
2022-09-18T21:11:44.802Z,13.46
2022-09-18T21:14:15.506Z,13.36
2022-09-18T21:16:42.982Z,13.19
2022-09-18T21:19:17.870Z,13.19
2022-09-18T21:21:49.154Z,13.08
2022-09-18T21:24:17.391Z,13.01
2022-09-18T21:26:49.785Z,13.00
2022-09-18T21:29:23.269Z,12.93
2022-09-18T21:31:53.082Z,12.86
2022-09-18T21:34:26.941Z,12.91
2022-09-18T21:36:59.482Z,12.90
2022-09-18T21:39:30.987Z,12.81
2022-09-18T21:41:59.799Z,12.72
2022-09-18T21:44:30.035Z,12.73
2022-09-18T21:47:02.903Z,12.73
2022-09-18T21:49:31.350Z,12.70
2022-09-18T21:52:03.071Z,12.73
2022-09-18T21:54:32.259Z,12.63
2022-09-18T21:57:00.130Z,12.59
2022-09-18T21:59:36.559Z,12.58
2022-09-18T22:02:05.651Z,12.50
2022-09-18T22:04:33.920Z,12.46
2022-09-18T22:07:01.848Z,12.45
2022-09-18T22:09:31.922Z,12.46
2022-09-18T22:12:01.248Z,12.42
2022-09-18T22:14:32.696Z,12.40
2022-09-18T22:17:03.041Z,12.44
2022-09-18T22:19:33.116Z,12.41
2022-09-18T22:22:00.755Z,12.48
2022-09-18T22:24:28.566Z,12.46
2022-09-18T22:26:58.466Z,12.41
2022-09-18T22:29:28.622Z,12.42
2022-09-18T22:31:56.258Z,12.42
2022-09-18T22:34:26.400Z,12.52
2022-09-18T22:36:54.287Z,12.55
2022-09-18T22:39:22.400Z,12.51
2022-09-18T22:41:51.546Z,12.50
2022-09-18T22:44:21.359Z,12.45
2022-09-18T22:46:51.984Z,12.46
2022-09-18T22:49:20.943Z,12.52
2022-09-18T22:51:48.657Z,12.46
2022-09-18T22:54:17.054Z,12.45
2022-09-18T22:56:46.743Z,12.43
2022-09-18T22:59:16.397Z,12.45
2022-09-18T23:01:51.109Z,12.42
2022-09-18T23:04:20.112Z,12.42
2022-09-18T23:06:48.241Z,12.31
2022-09-18T23:09:17.725Z,12.34
2022-09-18T23:11:46.628Z,12.30
2022-09-18T23:14:17.152Z,12.26
2022-09-18T23:16:45.362Z,12.27
2022-09-18T23:19:20.732Z,12.27
2022-09-18T23:21:47.974Z,12.08
2022-09-18T23:24:18.549Z,11.99
2022-09-18T23:26:48.379Z,11.76
2022-09-18T23:29:24.379Z,11.78
2022-09-18T23:31:53.686Z,11.72
2022-09-18T23:34:23.586Z,11.73
2022-09-18T23:36:52.676Z,11.74
2022-09-18T23:39:26.934Z,11.82
2022-09-18T23:41:54.741Z,11.81
2022-09-18T23:44:23.407Z,11.73
2022-09-18T23:46:51.119Z,11.62
2022-09-18T23:49:23.468Z,11.62
2022-09-18T23:51:52.604Z,11.61
2022-09-18T23:54:25.339Z,11.66
2022-09-18T23:56:53.786Z,11.60
2022-09-18T23:59:23.442Z,11.51
